createdAt,value
2022-12-26T00:01:37.127Z,11.50
2022-12-26T00:04:52.097Z,11.50
2022-12-26T00:19:20.123Z,11.60
2022-12-26T00:36:41.428Z,11.40
2022-12-26T00:44:07.190Z,11.30
2022-12-26T00:54:02.576Z,11.30
2022-12-26T00:56:30.796Z,11.40
2022-12-26T01:06:28.016Z,11.50
2022-12-26T01:11:40.831Z,11.50
2022-12-26T01:14:12.664Z,11.50
2022-12-26T01:16:42.713Z,11.50
2022-12-26T01:19:12.088Z,11.50
2022-12-26T01:26:39.081Z,11.50
2022-12-26T01:46:39.223Z,11.40
2022-12-26T01:49:10.133Z,11.40
2022-12-26T01:54:41.457Z,11.40
2022-12-26T01:57:10.541Z,11.40
2022-12-26T01:59:43.027Z,11.50
2022-12-26T02:05:04.377Z,11.50
2022-12-26T02:07:34.981Z,11.50
2022-12-26T02:10:06.177Z,11.40
2022-12-26T02:12:38.900Z,11.40
2022-12-26T02:15:13.886Z,11.40
2022-12-26T02:20:20.318Z,11.40
2022-12-26T02:23:33.551Z,11.40
2022-12-26T02:26:54.099Z,11.40
2022-12-26T02:30:06.708Z,11.30
2022-12-26T02:33:02.494Z,11.30
2022-12-26T02:35:50.038Z,11.20
2022-12-26T02:38:34.489Z,11.20
2022-12-26T02:41:21.283Z,11.10
2022-12-26T02:44:27.126Z,11.20
2022-12-26T02:47:06.404Z,11.10
2022-12-26T02:50:14.697Z,11.10
2022-12-26T02:53:13.118Z,11.10
2022-12-26T02:56:03.192Z,11.00
2022-12-26T02:58:57.563Z,11.00
2022-12-26T03:01:51.269Z,10.90
2022-12-26T03:04:41.212Z,11.00
2022-12-26T03:07:35.784Z,11.20
2022-12-26T03:10:32.814Z,11.40
2022-12-26T03:16:07.506Z,11.60
2022-12-26T03:18:58.121Z,11.50
2022-12-26T03:21:31.325Z,11.50
2022-12-26T03:24:01.387Z,11.40
2022-12-26T03:26:43.765Z,11.40
2022-12-26T03:29:33.425Z,11.40
2022-12-26T03:32:04.000Z,11.50
2022-12-26T03:37:24.675Z,11.60
2022-12-26T03:41:01.852Z,11.50
2022-12-26T03:44:12.675Z,11.50
2022-12-26T03:47:18.240Z,11.50
2022-12-26T03:50:08.927Z,11.50
2022-12-26T03:53:03.297Z,11.40
2022-12-26T03:55:58.199Z,11.30
2022-12-26T03:58:51.034Z,11.20
2022-12-26T04:01:41.320Z,11.20
2022-12-26T04:04:32.331Z,11.10
2022-12-26T04:07:24.968Z,11.10
2022-12-26T04:10:19.243Z,11.10
2022-12-26T04:13:08.565Z,11.00
2022-12-26T04:16:04.161Z,11.00
2022-12-26T04:18:55.796Z,10.90
2022-12-26T04:21:50.309Z,10.90
2022-12-26T04:24:42.404Z,10.80
2022-12-26T04:27:32.978Z,10.80
2022-12-26T04:30:20.424Z,10.80
2022-12-26T04:33:11.519Z,10.70
2022-12-26T04:36:06.873Z,10.70
2022-12-26T04:38:59.060Z,10.70
2022-12-26T04:41:47.789Z,10.70
2022-12-26T04:44:24.330Z,10.70
2022-12-26T04:46:56.551Z,10.70
2022-12-26T04:52:14.571Z,10.80
2022-12-26T04:57:12.758Z,10.80
2022-12-26T05:02:29.138Z,10.80
2022-12-26T05:10:30.501Z,10.80
2022-12-26T05:12:58.691Z,10.80
2022-12-26T05:18:14.361Z,10.90
2022-12-26T05:23:47.304Z,10.80
2022-12-26T05:26:37.137Z,11.00
2022-12-26T05:34:07.103Z,11.60
2022-12-26T05:36:40.196Z,11.90
2022-12-26T05:39:10.249Z,12.10
2022-12-26T05:41:39.916Z,12.20
2022-12-26T05:46:38.297Z,12.30
2022-12-26T05:49:08.244Z,12.40
2022-12-26T05:51:36.855Z,12.40
2022-12-26T06:04:01.644Z,12.50
2022-12-26T06:06:31.275Z,12.50
2022-12-26T06:11:28.632Z,12.60
2022-12-26T06:13:57.396Z,12.60
2022-12-26T06:18:56.372Z,12.60
2022-12-26T06:21:25.319Z,12.60
2022-12-26T06:23:54.972Z,12.60
2022-12-26T06:26:24.472Z,12.60
2022-12-26T06:28:53.114Z,12.60
2022-12-26T06:31:24.933Z,12.60
2022-12-26T06:36:28.362Z,12.60
2022-12-26T06:39:01.078Z,12.60
2022-12-26T06:51:28.451Z,12.70
2022-12-26T06:54:00.566Z,12.70
2022-12-26T06:56:30.022Z,12.70
2022-12-26T06:59:00.661Z,12.80
2022-12-26T07:06:31.861Z,12.70
2022-12-26T07:09:04.782Z,12.70
2022-12-26T07:11:36.537Z,12.70
2022-12-26T07:16:36.635Z,12.60
2022-12-26T07:24:17.421Z,12.60
2022-12-26T07:29:16.089Z,12.60
2022-12-26T07:39:15.136Z,12.50
2022-12-26T07:44:28.428Z,12.50
2022-12-26T07:46:57.730Z,12.50
2022-12-26T07:54:26.612Z,12.40
2022-12-26T08:09:44.680Z,12.30
2022-12-26T08:14:42.859Z,12.30
2022-12-26T08:27:08.764Z,12.20
2022-12-26T08:32:06.667Z,12.20
2022-12-26T08:44:31.253Z,12.20
2022-12-26T09:01:52.273Z,12.10
2022-12-26T09:14:15.336Z,12.10
2022-12-26T09:16:50.504Z,12.10
2022-12-26T09:19:22.811Z,12.10
2022-12-26T09:22:13.647Z,12.10
2022-12-26T09:24:41.921Z,12.00
2022-12-26T09:29:40.159Z,12.10
2022-12-26T09:32:10.678Z,12.00
2022-12-26T09:34:41.294Z,12.00
2022-12-26T09:42:24.798Z,12.00
2022-12-26T09:45:05.386Z,12.00
2022-12-26T09:47:35.817Z,12.00
2022-12-26T09:50:14.164Z,12.00
2022-12-26T09:52:49.330Z,12.00
2022-12-26T09:55:41.940Z,11.90
2022-12-26T09:58:22.779Z,11.90
2022-12-26T10:00:56.443Z,12.00
2022-12-26T10:03:25.707Z,12.00
2022-12-26T10:06:16.946Z,12.00
2022-12-26T10:09:13.330Z,12.00
2022-12-26T10:12:02.149Z,12.00
2022-12-26T10:14:43.322Z,12.00
2022-12-26T10:17:24.730Z,12.00
2022-12-26T10:20:20.030Z,12.00
2022-12-26T10:23:29.297Z,12.00
2022-12-26T10:26:04.759Z,11.90
2022-12-26T10:28:40.142Z,12.00
2022-12-26T10:33:50.327Z,12.10
2022-12-26T10:36:31.906Z,12.20
2022-12-26T10:39:04.405Z,12.10
2022-12-26T10:41:41.864Z,12.10
2022-12-26T10:44:12.597Z,12.10
2022-12-26T10:47:11.034Z,12.20
2022-12-26T10:54:42.239Z,12.30
2022-12-26T10:57:11.296Z,12.30
2022-12-26T11:05:27.341Z,12.30
2022-12-26T11:08:06.610Z,12.30
2022-12-26T11:10:36.916Z,12.30
2022-12-26T11:13:18.233Z,12.30
2022-12-26T11:15:52.307Z,12.30
2022-12-26T11:18:24.382Z,12.30
2022-12-26T11:20:52.682Z,12.20
2022-12-26T11:23:27.855Z,12.30
2022-12-26T11:26:00.313Z,12.20
2022-12-26T11:28:36.853Z,12.20
2022-12-26T11:31:08.822Z,12.30
2022-12-26T11:33:43.376Z,12.30
2022-12-26T11:36:20.387Z,12.30
2022-12-26T11:38:54.307Z,12.40
2022-12-26T11:41:40.285Z,12.50
2022-12-26T11:44:25.949Z,12.50
2022-12-26T11:47:00.120Z,12.50
2022-12-26T11:49:34.390Z,12.50
2022-12-26T11:52:25.212Z,12.50
2022-12-26T11:57:29.739Z,12.50
2022-12-26T12:00:18.758Z,12.50
2022-12-26T12:05:30.025Z,12.50
2022-12-26T12:11:22.975Z,12.50
2022-12-26T12:16:58.216Z,12.50
2022-12-26T12:19:44.424Z,12.50
2022-12-26T12:22:37.252Z,12.50
2022-12-26T12:25:27.022Z,12.50
2022-12-26T12:30:46.779Z,12.60
2022-12-26T12:33:39.673Z,12.60
2022-12-26T12:36:11.694Z,12.60
2022-12-26T12:38:56.975Z,12.60
2022-12-26T12:41:46.913Z,12.60
2022-12-26T12:44:22.985Z,12.60
2022-12-26T12:47:05.872Z,12.60
2022-12-26T12:49:57.953Z,12.60
2022-12-26T12:52:44.371Z,12.60
2022-12-26T12:55:58.905Z,12.60
2022-12-26T12:58:38.395Z,12.60
2022-12-26T13:01:13.630Z,12.60
2022-12-26T13:03:50.882Z,12.60
2022-12-26T13:06:26.641Z,12.60
2022-12-26T13:08:59.580Z,12.50
2022-12-26T13:11:36.370Z,12.40
2022-12-26T13:14:13.035Z,12.50
2022-12-26T13:16:47.657Z,12.50
2022-12-26T13:19:23.317Z,12.50
2022-12-26T13:21:56.166Z,12.50
2022-12-26T13:24:32.335Z,12.50
2022-12-26T13:29:44.319Z,12.50
2022-12-26T13:32:22.831Z,12.50
2022-12-26T13:34:55.295Z,12.50
2022-12-26T13:37:56.084Z,12.50
2022-12-26T13:40:29.950Z,12.60
2022-12-26T13:43:22.086Z,12.50
2022-12-26T13:45:57.178Z,12.40
2022-12-26T13:48:58.700Z,12.60
2022-12-26T13:51:50.840Z,12.60
2022-12-26T13:54:20.924Z,12.60
2022-12-26T14:00:18.656Z,12.50
2022-12-26T14:03:52.207Z,12.50
2022-12-26T14:09:50.691Z,12.40
2022-12-26T14:12:52.031Z,12.40
2022-12-26T14:15:37.125Z,12.30
2022-12-26T14:21:00.380Z,12.20
2022-12-26T14:23:48.339Z,12.20
2022-12-26T14:29:17.272Z,12.30
2022-12-26T14:32:00.156Z,12.30
2022-12-26T14:34:56.034Z,12.30
2022-12-26T14:37:35.606Z,12.30
2022-12-26T14:40:28.979Z,12.30
2022-12-26T14:43:34.876Z,12.30
2022-12-26T14:46:09.489Z,12.30
2022-12-26T14:48:58.201Z,12.20
2022-12-26T14:51:41.614Z,12.10
2022-12-26T14:57:50.024Z,12.00
2022-12-26T15:00:34.873Z,12.00
2022-12-26T15:03:43.495Z,11.90
2022-12-26T15:07:12.918Z,11.80
2022-12-26T15:10:39.211Z,11.80
2022-12-26T15:13:58.247Z,11.70
2022-12-26T15:16:45.346Z,11.70
2022-12-26T15:23:07.404Z,11.70
2022-12-26T15:26:10.564Z,11.60
2022-12-26T15:29:32.531Z,11.60
2022-12-26T15:32:11.162Z,11.60
2022-12-26T15:34:56.095Z,11.70
2022-12-26T15:37:40.771Z,11.70
2022-12-26T15:48:39.130Z,11.60
2022-12-26T15:51:14.608Z,11.60
2022-12-26T15:54:01.447Z,11.60
2022-12-26T15:57:03.977Z,11.60
2022-12-26T16:00:12.710Z,11.60
2022-12-26T16:02:48.985Z,11.50
2022-12-26T16:06:00.126Z,11.40
2022-12-26T16:08:57.127Z,11.30
2022-12-26T16:14:02.325Z,11.20
2022-12-26T16:16:35.088Z,11.10
2022-12-26T16:19:23.339Z,11.00
2022-12-26T16:32:22.225Z,9.50
2022-12-26T16:34:52.213Z,10.30
2022-12-26T16:37:25.164Z,10.10
2022-12-26T16:40:21.259Z,10.00
2022-12-26T16:43:02.663Z,9.80
2022-12-26T16:45:35.244Z,9.80
2022-12-26T16:48:07.837Z,9.70
2022-12-26T16:50:47.013Z,9.60
2022-12-26T16:53:17.593Z,9.50
2022-12-26T16:55:48.842Z,9.40
2022-12-26T16:58:25.228Z,9.40
2022-12-26T17:01:09.086Z,9.30
2022-12-26T17:03:48.407Z,9.10
2022-12-26T17:08:54.140Z,8.80
2022-12-26T17:16:31.820Z,8.50
2022-12-26T17:19:13.007Z,8.50
2022-12-26T17:21:42.657Z,8.40
2022-12-26T17:24:31.907Z,8.40
2022-12-26T17:27:20.115Z,8.40
2022-12-26T17:29:58.316Z,8.30
2022-12-26T17:37:46.095Z,8.30
2022-12-26T17:40:27.808Z,8.30
2022-12-26T17:43:06.051Z,8.20
2022-12-26T17:50:35.384Z,8.10
2022-12-26T17:53:23.560Z,8.10
2022-12-26T17:55:52.869Z,8.10
2022-12-26T18:03:19.365Z,8.10
2022-12-26T18:05:48.406Z,8.00
2022-12-26T18:08:29.087Z,8.10
2022-12-26T18:10:57.792Z,8.10
2022-12-26T18:15:57.537Z,8.00
2022-12-26T18:18:31.820Z,8.00
2022-12-26T18:23:31.386Z,8.10
2022-12-26T18:26:02.554Z,8.00
2022-12-26T18:38:25.182Z,8.10
2022-12-26T18:40:54.752Z,8.10
2022-12-26T18:43:23.472Z,8.00
2022-12-26T18:58:16.962Z,7.90
2022-12-26T19:08:12.270Z,8.00
2022-12-26T19:10:47.242Z,7.90
2022-12-26T19:13:16.961Z,7.90
2022-12-26T19:15:47.667Z,7.90
2022-12-26T19:20:45.523Z,7.80
2022-12-26T19:30:40.739Z,7.70
2022-12-26T19:33:08.988Z,7.60
2022-12-26T19:35:37.185Z,7.60
2022-12-26T19:38:05.422Z,7.60
2022-12-26T19:48:00.591Z,7.70
2022-12-26T20:05:21.715Z,7.80
2022-12-26T20:12:47.262Z,8.00
2022-12-26T20:22:44.811Z,8.10
2022-12-26T20:25:16.394Z,8.00
2022-12-26T20:30:13.750Z,8.00
2022-12-26T20:37:45.090Z,7.90
2022-12-26T20:40:13.806Z,7.90
2022-12-26T20:45:11.699Z,7.90
2022-12-26T20:47:39.919Z,7.90
2022-12-26T20:50:09.554Z,7.90
2022-12-26T20:55:09.067Z,7.80
2022-12-26T21:00:08.230Z,7.70
2022-12-26T21:05:06.186Z,7.50
2022-12-26T21:12:32.983Z,7.30
2022-12-26T21:29:53.820Z,6.90
2022-12-26T21:40:06.594Z,6.60
2022-12-26T22:00:19.338Z,6.20
2022-12-26T22:08:08.331Z,6.10
2022-12-26T22:10:56.287Z,6.10
2022-12-26T22:13:26.715Z,6.00
2022-12-26T22:16:04.158Z,6.00
2022-12-26T22:21:06.799Z,6.00
2022-12-26T22:31:03.503Z,5.80
2022-12-26T22:36:07.524Z,5.70
2022-12-26T22:41:06.531Z,5.60
2022-12-26T22:56:03.356Z,5.50
2022-12-26T22:58:33.741Z,5.50
2022-12-26T23:03:32.726Z,5.40
2022-12-26T23:11:00.769Z,5.40
2022-12-26T23:19:04.418Z,5.30
2022-12-26T23:21:42.448Z,5.20
2022-12-26T23:24:16.025Z,5.20
2022-12-26T23:26:46.930Z,5.10
2022-12-26T23:29:39.376Z,5.00
